Time;durP1;ratioP1;P1;durP2;ratioP2;P2;SDS_P1;SDS_P2;PMS_P1;PMS_P2;Temp;Humidity;BMP_temperature;BMP_pressure;BME280_temperature;BME280_humidity;BME280_pressure;Samples;Min_cycle;Max_cycle;Signal;HPM_P1;HPM_P2
2023/12/25 00:01:04;;;;;;;2.00;1.55;;;;;;;8.83;67.31;99073.31;4444674;32;32343;-81
2023/12/25 00:03:32;;;;;;;1.37;1.02;;;;;;;8.80;67.18;99064.69;4460993;32;33583;-82
2023/12/25 00:06:13;;;;;;;1.70;1.62;;;;;;;9.32;65.90;99102.50;4451075;32;32984;-82
2023/12/25 00:08:41;;;;;;;1.55;1.05;;;;;;;9.38;65.69;99114.53;4447031;32;32598;-80
2023/12/25 00:11:10;;;;;;;0.55;0.55;;;;;;;9.11;66.42;99121.97;4459241;32;32867;-80
2023/12/25 00:13:38;;;;;;;5.12;0.57;;;;;;;9.08;66.43;99109.00;4460308;32;33152;-80
2023/12/25 00:16:06;;;;;;;1.77;1.65;;;;;;;9.00;65.94;99100.59;4466145;32;33917;-79
2023/12/25 00:18:34;;;;;;;2.72;2.05;;;;;;;8.75;66.37;99099.13;4461294;32;33312;-80
2023/12/25 00:21:02;;;;;;;2.30;2.10;;;;;;;8.75;66.13;99107.03;4464639;32;33499;-80
2023/12/25 00:23:30;;;;;;;0.73;0.73;;;;;;;8.79;66.23;99098.06;4436390;32;34847;-80
2023/12/25 00:25:58;;;;;;;1.17;1.00;;;;;;;8.67;66.72;99085.47;4435895;32;32827;-80
2023/12/25 00:28:25;;;;;;;4.25;3.20;;;;;;;8.63;66.80;99086.53;4449213;32;34098;-80
2023/12/25 00:30:53;;;;;;;1.77;1.50;;;;;;;8.83;66.23;99081.22;4462318;32;33657;-80
2023/12/25 00:33:21;;;;;;;2.28;1.98;;;;;;;8.68;65.97;99084.56;4460415;32;34684;-80
2023/12/25 00:35:50;;;;;;;0.62;0.62;;;;;;;8.72;66.39;99086.13;4461779;32;33102;-81
2023/12/25 00:38:17;;;;;;;7.97;1.40;;;;;;;8.69;66.20;99075.75;4446817;32;32599;-81
2023/12/25 00:40:47;;;;;;;12.82;2.30;;;;;;;9.30;63.87;99072.72;4449114;32;32675;-80
2023/12/25 00:43:14;;;;;;;3.12;2.78;;;;;;;8.55;65.81;99078.19;4445533;32;33826;-80
2023/12/25 00:45:42;;;;;;;1.35;1.35;;;;;;;8.30;66.08;99095.03;4461838;32;34476;-80
2023/12/25 00:48:09;;;;;;;1.25;1.25;;;;;;;8.21;67.10;99105.97;4449881;32;34002;-80
2023/12/25 00:50:37;;;;;;;0.90;0.90;;;;;;;8.27;66.37;99120.66;4447179;32;34538;-80
2023/12/25 00:53:05;;;;;;;1.75;1.62;;;;;;;8.15;66.82;99112.38;4461821;32;34793;-80
2023/12/25 00:55:33;;;;;;;5.62;3.45;;;;;;;8.24;66.26;99105.84;4449143;32;33269;-80
2023/12/25 00:58:00;;;;;;;2.60;2.40;;;;;;;8.61;65.19;99115.56;4450857;32;33919;-80
2023/12/25 01:00:29;;;;;;;2.78;2.58;;;;;;;8.30;65.84;99123.13;4448193;32;34291;-80
2023/12/25 01:02:56;;;;;;;1.27;1.15;;;;;;;8.56;65.30;99119.34;4459618;32;34678;-79
2023/12/25 01:05:24;;;;;;;1.67;1.58;;;;;;;8.24;65.99;99142.66;4462624;32;33601;-80
2023/12/25 01:07:53;;;;;;;1.48;1.42;;;;;;;8.19;66.31;99149.91;4433658;32;32111;-80
2023/12/25 01:10:21;;;;;;;0.50;0.50;;;;;;;8.07;66.53;99161.84;4461010;32;34158;-79
2023/12/25 01:12:49;;;;;;;0.70;0.70;;;;;;;8.25;66.14;99154.91;4433309;32;32264;-80
2023/12/25 01:15:17;;;;;;;1.62;1.55;;;;;;;8.02;66.60;99161.16;4446780;32;33680;-80
2023/12/25 01:17:44;;;;;;;5.25;1.23;;;;;;;7.94;67.17;99174.66;4448630;32;33400;-79
2023/12/25 01:20:12;;;;;;;1.23;1.23;;;;;;;8.19;66.43;99150.75;4435722;32;33018;-79
2023/12/25 01:22:40;;;;;;;0.22;0.22;;;;;;;8.43;65.23;99155.87;4450893;32;32524;-79
2023/12/25 01:25:08;;;;;;;2.70;1.30;;;;;;;8.13;66.31;99161.56;4460348;32;32316;-79
2023/12/25 01:27:39;;;;;;;4.15;1.62;;;;;;;8.04;66.26;99155.84;4436962;32;32778;-79
2023/12/25 01:30:10;;;;;;;1.33;0.65;;;;;;;8.06;66.91;99152.22;4461457;32;33147;-79
2023/12/25 01:32:38;;;;;;;0.22;0.22;;;;;;;8.07;66.99;99151.31;4443741;32;32777;-79
2023/12/25 01:35:06;;;;;;;2.22;2.12;;;;;;;8.39;65.61;99157.78;4460155;32;34158;-79
2023/12/25 01:37:33;;;;;;;1.35;1.25;;;;;;;8.14;66.38;99172.94;4445020;32;33589;-79
2023/12/25 01:40:02;;;;;;;0.60;0.60;;;;;;;8.11;66.74;99178.31;4447192;32;33053;-79
2023/12/25 01:42:30;;;;;;;0.98;0.98;;;;;;;8.11;66.71;99159.91;4449586;32;33398;-79
2023/12/25 01:44:58;;;;;;;0.95;0.95;;;;;;;8.02;67.53;99205.00;4460914;32;33617;-79
2023/12/25 01:47:25;;;;;;;1.37;1.27;;;;;;;8.12;66.81;99159.00;4458839;32;33661;-79
2023/12/25 01:49:55;;;;;;;0.98;0.82;;;;;;;8.25;66.04;99162.78;4448558;32;33108;-79
2023/12/25 01:52:22;;;;;;;0.32;0.32;;;;;;;7.96;66.55;99154.41;4445787;32;34057;-79
2023/12/25 01:54:50;;;;;;;2.92;1.83;;;;;;;7.82;66.89;99153.28;4433475;32;33048;-80
2023/12/25 01:57:18;;;;;;;6.22;2.40;;;;;;;7.92;67.06;99162.47;4459322;32;33450;-80
2023/12/25 01:59:46;;;;;;;2.72;2.50;;;;;;;7.99;67.17;99173.59;4459598;32;33875;-80
2023/12/25 02:02:14;;;;;;;0.65;0.37;;;;;;;7.97;66.94;99199.94;4436581;32;33064;-80
2023/12/25 02:04:42;;;;;;;1.60;1.52;;;;;;;8.00;66.83;99188.44;4445014;32;34251;-80
2023/12/25 02:07:11;;;;;;;2.25;2.05;;;;;;;7.98;67.66;99178.00;4460049;32;33119;-80
2023/12/25 02:09:39;;;;;;;1.30;1.20;;;;;;;7.75;67.64;99175.50;4447185;32;33539;-80
2023/12/25 02:12:07;;;;;;;2.00;1.35;;;;;;;7.88;67.54;99206.47;4456667;32;33523;-79
2023/12/25 02:14:34;;;;;;;0.82;0.82;;;;;;;8.38;66.20;99197.34;4433084;32;32940;-79
2023/12/25 02:17:02;;;;;;;1.58;1.48;;;;;;;8.57;65.34;99181.56;4443865;32;33105;-79
2023/12/25 02:19:38;;;;;;;0.40;0.40;;;;;;;8.15;66.01;99169.38;4445875;32;33887;-81
2023/12/25 02:22:07;;;;;;;0.82;0.62;;;;;;;8.07;66.90;99158.31;4456606;32;35067;-80
2023/12/25 02:24:54;;;;;;;0.60;0.60;;;;;;;8.01;67.14;99156.81;4435699;32;33174;-80
2023/12/25 02:27:22;;;;;;;0.40;0.40;;;;;;;8.04;67.15;99155.84;4445351;32;32772;-78
2023/12/25 02:29:50;;;;;;;2.87;1.10;;;;;;;7.84;68.19;99159.34;4435087;32;33379;-79
2023/12/25 02:32:18;;;;;;;5.85;1.73;;;;;;;8.08;67.61;99157.44;4445938;32;33848;-78
2023/12/25 02:34:47;;;;;;;1.23;1.23;;;;;;;8.36;66.67;99146.53;4448141;32;32879;-78
2023/12/25 02:37:16;;;;;;;1.95;1.85;;;;;;;8.70;65.23;99132.72;4459079;32;32831;-78
2023/12/25 02:39:43;;;;;;;0.82;0.82;;;;;;;8.22;66.38;99144.53;4445725;32;33576;-78
2023/12/25 02:42:12;;;;;;;2.60;1.27;;;;;;;7.91;67.92;99173.91;4447739;32;34121;-79
2023/12/25 02:44:39;;;;;;;2.10;1.90;;;;;;;7.76;68.88;99182.47;4445238;32;33091;-79
2023/12/25 02:47:07;;;;;;;0.55;0.55;;;;;;;8.43;66.84;99180.41;4433973;32;33198;-79
2023/12/25 02:49:35;;;;;;;1.48;1.15;;;;;;;8.11;67.39;99194.09;4447651;32;33095;-79
2023/12/25 02:52:03;;;;;;;2.87;2.65;;;;;;;8.08;67.87;99199.50;4446433;32;33962;-79
2023/12/25 02:54:30;;;;;;;1.55;0.88;;;;;;;8.00;68.32;99217.38;4464466;32;33842;-79
2023/12/25 02:56:58;;;;;;;1.33;0.90;;;;;;;8.36;67.31;99209.69;4435869;32;31835;-78
2023/12/25 02:59:26;;;;;;;1.12;1.10;;;;;;;8.24;67.08;99216.31;4459241;32;34063;-79
2023/12/25 03:01:54;;;;;;;0.17;0.17;;;;;;;8.04;67.61;99216.31;4440604;32;32717;-79
2023/12/25 03:04:24;;;;;;;0.68;0.68;;;;;;;8.01;68.21;99229.59;4448533;32;33523;-79
2023/12/25 03:06:51;;;;;;;0.82;0.80;;;;;;;8.02;68.41;99231.28;4447124;32;33880;-79
2023/12/25 03:09:19;;;;;;;1.73;1.60;;;;;;;8.04;68.62;99213.69;4435317;32;33118;-79
2023/12/25 03:11:47;;;;;;;0.20;0.20;;;;;;;8.30;67.56;99208.16;4435207;32;33516;-79
2023/12/25 03:14:14;;;;;;;0.95;0.95;;;;;;;8.21;68.30;99214.69;4460566;32;33888;-79
2023/12/25 03:16:42;;;;;;;1.95;0.65;;;;;;;8.32;67.93;99203.69;4447516;32;31981;-79
2023/12/25 03:19:10;;;;;;;1.62;1.30;;;;;;;8.16;68.39;99202.63;4434864;32;34881;-79
2023/12/25 03:21:38;;;;;;;0.37;0.37;;;;;;;8.10;68.33;99213.44;4448215;32;32663;-79
2023/12/25 03:24:06;;;;;;;1.95;1.85;;;;;;;8.45;67.60;99197.00;4446404;32;33813;-79
2023/12/25 03:26:34;;;;;;;1.98;1.87;;;;;;;8.73;66.55;99208.87;4459540;32;33488;-80
2023/12/25 03:29:02;;;;;;;3.15;1.83;;;;;;;8.33;68.33;99213.28;4446995;32;32468;-79
2023/12/25 03:31:30;;;;;;;8.70;3.17;;;;;;;8.04;69.72;99195.28;4445231;32;33224;-79
2023/12/25 03:33:58;;;;;;;0.43;0.43;;;;;;;7.72;71.08;99208.00;4434336;32;32533;-79
2023/12/25 03:36:26;;;;;;;2.78;2.00;;;;;;;7.81;70.76;99194.47;4445463;32;32327;-79
2023/12/25 03:38:54;;;;;;;0.52;0.52;;;;;;;7.91;71.26;99193.19;4446146;32;34088;-79
2023/12/25 03:41:22;;;;;;;0.13;0.13;;;;;;;8.53;68.61;99195.78;4446759;32;34286;-79
2023/12/25 03:43:50;;;;;;;1.83;0.45;;;;;;;8.45;69.46;99198.75;4453732;32;33534;-79
2023/12/25 03:46:18;;;;;;;0.50;0.15;;;;;;;8.66;70.13;99191.69;4462116;32;33258;-79
2023/12/25 03:48:46;;;;;;;3.53;1.10;;;;;;;8.33;73.82;99180.88;4459215;32;34181;-79
2023/12/25 03:51:14;;;;;;;0.52;0.52;;;;;;;9.04;74.39;99175.88;4446877;32;33523;-79
2023/12/25 03:53:42;;;;;;;0.15;0.15;;;;;;;9.20;76.17;99174.22;4447624;32;33131;-80
2023/12/25 03:56:11;;;;;;;0.10;0.10;;;;;;;9.43;76.15;99173.97;4461362;32;33674;-80
2023/12/25 03:58:39;;;;;;;0.37;0.37;;;;;;;9.67;76.19;99165.78;4447134;32;33956;-80
2023/12/25 04:01:06;;;;;;;0.03;0.03;;;;;;;9.82;76.47;99178.19;4447132;32;34815;-80
2023/12/25 04:03:34;;;;;;;0.00;0.00;;;;;;;10.01;75.66;99181.56;4446198;32;32645;-80
2023/12/25 04:06:02;;;;;;;0.28;0.28;;;;;;;10.57;73.53;99199.84;4447089;32;34047;-81
2023/12/25 04:08:30;;;;;;;1.30;0.70;;;;;;;10.42;74.03;99199.72;4433857;32;32516;-81
2023/12/25 04:10:58;;;;;;;0.22;0.22;;;;;;;10.51;74.20;99191.34;4446517;32;33749;-80
2023/12/25 04:13:26;;;;;;;0.00;0.00;;;;;;;10.60;73.40;99189.16;4433531;32;32606;-80
2023/12/25 04:15:54;;;;;;;0.30;0.25;;;;;;;10.60;72.91;99181.22;4431486;32;33876;-80
2023/12/25 04:18:22;;;;;;;;;;;;;;;10.56;74.54;99179.69;4445928;32;33433;-80
2023/12/25 04:20:49;;;;;;;;;;;;;;;10.60;75.03;99189.16;4461539;32;34121;-81
2023/12/25 04:23:17;;;;;;;;;;;;;;;10.87;74.59;99189.41;4457776;32;34192;-81
2023/12/25 04:25:45;;;;;;;;;;;;;;;10.98;74.35;99182.62;4447975;32;33931;-80
2023/12/25 04:28:12;;;;;;;0.00;0.00;;;;;;;10.76;75.15;99184.72;4433123;32;33188;-81
2023/12/25 04:30:40;;;;;;;0.00;0.00;;;;;;;10.90;75.02;99182.19;4459281;32;33629;-80
2023/12/25 04:33:08;;;;;;;0.00;0.00;;;;;;;11.24;74.03;99183.81;4435391;32;32558;-81
2023/12/25 04:35:36;;;;;;;0.17;0.17;;;;;;;11.47;73.27;99181.66;4449685;32;32255;-81
2023/12/25 04:38:04;;;;;;;0.00;0.00;;;;;;;11.67;71.79;99177.84;4459776;32;33268;-80
2023/12/25 04:40:32;;;;;;;0.45;0.45;;;;;;;11.48;72.46;99178.91;4442973;32;32873;-81
2023/12/25 04:42:59;;;;;;;0.13;0.13;;;;;;;11.32;73.13;99188.66;4445750;32;33857;-81
2023/12/25 04:45:27;;;;;;;0.35;0.10;;;;;;;11.33;71.91;99187.72;4444270;32;32503;-80
2023/12/25 04:47:55;;;;;;;0.85;0.75;;;;;;;11.34;71.98;99175.34;4449757;32;33445;-81
2023/12/25 04:50:23;;;;;;;0.10;0.10;;;;;;;11.49;71.53;99178.00;4447609;32;33971;-80
2023/12/25 04:52:52;;;;;;;0.10;0.10;;;;;;;11.63;71.00;99181.62;4446731;32;33462;-81
2023/12/25 04:55:19;;;;;;;0.85;0.85;;;;;;;11.78;70.85;99176.31;4434651;32;32402;-80
2023/12/25 04:57:47;;;;;;;0.10;0.10;;;;;;;11.69;70.39;99178.63;4459384;32;33833;-81
2023/12/25 05:00:15;;;;;;;0.22;0.10;;;;;;;12.05;69.72;99179.13;4433564;32;33395;-81
2023/12/25 05:02:42;;;;;;;0.32;0.32;;;;;;;12.24;68.65;99185.97;4447681;32;33752;-81
2023/12/25 05:05:10;;;;;;;0.22;0.22;;;;;;;12.03;69.27;99194.25;4463388;32;33072;-81
2023/12/25 05:07:38;;;;;;;0.52;0.52;;;;;;;11.72;69.80;99186.37;4459320;32;33786;-81
2023/12/25 05:10:06;;;;;;;1.42;0.43;;;;;;;11.85;69.34;99191.84;4448827;32;34610;-81
2023/12/25 05:12:34;;;;;;;0.30;0.30;;;;;;;11.77;70.39;99192.25;4448213;32;33608;-81
2023/12/25 05:15:02;;;;;;;0.60;0.32;;;;;;;11.99;70.00;99179.50;4444568;32;33372;-81
2023/12/25 05:17:30;;;;;;;0.37;0.37;;;;;;;12.19;69.04;99177.47;4448446;32;32471;-81
2023/12/25 05:19:58;;;;;;;0.95;0.90;;;;;;;12.13;69.11;99180.47;4460024;32;33325;-81
2023/12/25 05:22:25;;;;;;;0.00;0.00;;;;;;;12.16;68.69;99175.00;4449525;32;33575;-80
2023/12/25 05:24:53;;;;;;;0.10;0.10;;;;;;;12.02;69.61;99181.97;4447211;32;32939;-80
2023/12/25 05:27:21;;;;;;;0.30;0.30;;;;;;;12.25;68.78;99175.31;4459427;32;33873;-80
2023/12/25 05:29:48;;;;;;;0.32;0.32;;;;;;;12.08;68.85;99179.91;4460003;32;32572;-80
2023/12/25 05:32:16;;;;;;;0.00;0.00;;;;;;;12.29;67.81;99186.53;4448407;32;33651;-80
2023/12/25 05:34:44;;;;;;;2.20;0.95;;;;;;;12.03;69.02;99175.75;4453649;32;32729;-80
2023/12/25 05:37:12;;;;;;;0.00;0.00;;;;;;;12.17;68.46;99177.56;4447251;32;34223;-80
2023/12/25 05:39:40;;;;;;;0.15;0.15;;;;;;;12.04;68.58;99171.28;4450706;32;33080;-79
2023/12/25 05:42:07;;;;;;;0.03;0.03;;;;;;;11.97;68.50;99180.56;4448490;32;32916;-79
2023/12/25 05:44:35;;;;;;;1.12;1.02;;;;;;;12.13;68.47;99185.78;4447048;32;32279;-79
2023/12/25 05:47:03;;;;;;;1.35;1.15;;;;;;;12.34;67.57;99188.91;4460711;32;34390;-80
2023/12/25 05:49:34;;;;;;;0.37;0.10;;;;;;;12.33;67.14;99193.34;4435401;32;33198;-80
2023/12/25 05:52:01;;;;;;;0.30;0.25;;;;;;;12.60;66.26;99192.63;4434024;32;33591;-79
2023/12/25 05:54:29;;;;;;;0.30;0.30;;;;;;;12.61;66.40;99207.56;4460040;32;33280;-80
2023/12/25 05:56:57;;;;;;;0.25;0.20;;;;;;;12.66;65.79;99197.53;4444801;32;33782;-80
2023/12/25 05:59:24;;;;;;;0.10;0.10;;;;;;;12.86;65.23;99212.19;4444710;32;33918;-79
2023/12/25 06:01:52;;;;;;;0.15;0.15;;;;;;;13.16;63.61;99212.09;4434362;32;32345;-81
2023/12/25 06:04:20;;;;;;;0.77;0.73;;;;;;;13.00;63.01;99223.63;4447394;32;33461;-81
2023/12/25 06:06:48;;;;;;;0.10;0.10;;;;;;;12.52;64.82;99217.78;4461504;32;33396;-81
2023/12/25 06:09:15;;;;;;;0.30;0.30;;;;;;;12.26;65.54;99210.56;4460228;32;34515;-81
2023/12/25 06:11:43;;;;;;;0.00;0.00;;;;;;;12.49;64.59;99210.03;4459703;32;34481;-82
2023/12/25 06:14:10;;;;;;;0.98;0.45;;;;;;;12.64;64.45;99212.69;4446613;32;32914;-80
2023/12/25 06:16:38;;;;;;;0.22;0.22;;;;;;;12.63;64.03;99211.84;4439511;32;32760;-81
2023/12/25 06:19:06;;;;;;;4.18;0.68;;;;;;;12.48;63.89;99208.31;4436401;32;33481;-80
2023/12/25 06:21:33;;;;;;;0.32;0.32;;;;;;;12.76;63.15;99217.22;4449929;32;32880;-80
2023/12/25 06:24:01;;;;;;;0.40;0.40;;;;;;;12.55;63.55;99220.25;4460292;32;31906;-80
2023/12/25 06:26:29;;;;;;;1.85;0.77;;;;;;;12.37;64.24;99231.09;4463812;32;33851;-80
2023/12/25 06:28:56;;;;;;;0.10;0.10;;;;;;;12.25;64.41;99232.69;4444288;32;32456;-80
2023/12/25 06:31:24;;;;;;;0.10;0.00;;;;;;;12.43;63.83;99226.28;4450917;32;32853;-80
2023/12/25 06:33:52;;;;;;;0.13;0.13;;;;;;;12.65;62.76;99230.28;4438973;32;32190;-80
2023/12/25 06:36:20;;;;;;;0.00;0.00;;;;;;;12.65;62.65;99232.94;4450539;32;31557;-80
2023/12/25 06:38:47;;;;;;;0.10;0.10;;;;;;;12.41;63.55;99238.75;4438837;32;32181;-80
2023/12/25 06:41:15;;;;;;;0.10;0.10;;;;;;;12.61;63.02;99244.66;4452083;32;32105;-80
2023/12/25 06:43:43;;;;;;;0.52;0.37;;;;;;;12.80;61.93;99240.78;4447796;32;32650;-79
2023/12/25 06:46:11;;;;;;;0.55;0.55;;;;;;;12.67;62.21;99244.25;4448366;32;33229;-80
2023/12/25 06:48:39;;;;;;;0.28;0.28;;;;;;;12.79;62.07;99241.72;4450251;32;32377;-80
2023/12/25 06:51:08;;;;;;;0.10;0.10;;;;;;;13.03;61.37;99257.91;4450785;32;33693;-80
2023/12/25 06:53:36;;;;;;;0.73;0.73;;;;;;;12.75;61.84;99258.75;4451842;32;31549;-79
2023/12/25 06:56:06;;;;;;;0.55;0.55;;;;;;;12.89;61.22;99265.84;4446949;32;32520;-80
2023/12/25 06:58:35;;;;;;;7.15;0.95;;;;;;;12.89;61.07;99273.81;4451630;32;32860;-79
2023/12/25 07:01:06;;;;;;;0.10;0.10;;;;;;;12.88;61.19;99273.91;4477023;31;34261;-79
2023/12/25 07:03:34;;;;;;;0.15;0.10;;;;;;;12.85;60.80;99268.78;4464151;32;33036;-79
2023/12/25 07:06:01;;;;;;;0.20;0.10;;;;;;;12.96;60.56;99271.63;4446435;32;34163;-79
2023/12/25 07:08:29;;;;;;;0.05;0.05;;;;;;;13.08;60.43;99279.66;4437088;32;31854;-79
2023/12/25 07:10:57;;;;;;;2.80;1.40;;;;;;;12.95;60.79;99281.38;4456263;32;32493;-80
2023/12/25 07:13:25;;;;;;;0.65;0.65;;;;;;;12.79;61.63;99275.31;4458071;32;32652;-79
2023/12/25 07:15:52;;;;;;;0.10;0.10;;;;;;;12.91;61.12;99279.00;4462273;32;33839;-79
2023/12/25 07:18:20;;;;;;;0.00;0.00;;;;;;;13.17;60.24;99277.41;4438426;32;33242;-79
2023/12/25 07:20:48;;;;;;;0.22;0.22;;;;;;;13.01;60.92;99274.88;4460352;32;33922;-80
2023/12/25 07:23:18;;;;;;;0.30;0.30;;;;;;;13.24;59.70;99281.38;4433112;32;33513;-81
2023/12/25 07:25:47;;;;;;;0.10;0.10;;;;;;;13.16;59.55;99278.34;4432363;32;34942;-81
2023/12/25 07:28:14;;;;;;;0.62;0.62;;;;;;;13.31;59.32;99277.41;4438032;32;34490;-81
2023/12/25 07:30:43;;;;;;;0.25;0.25;;;;;;;13.12;59.75;99282.13;4444176;32;32888;-80
2023/12/25 07:33:13;;;;;;;3.22;0.95;;;;;;;13.07;59.73;99275.31;4434577;32;32622;-80
2023/12/25 07:35:40;;;;;;;1.27;0.73;;;;;;;12.99;59.94;99282.88;4453679;32;31581;-80
2023/12/25 07:38:08;;;;;;;0.20;0.20;;;;;;;13.01;59.83;99274.88;4461371;32;34061;-81
2023/12/25 07:40:36;;;;;;;0.52;0.45;;;;;;;12.93;60.05;99275.31;4445170;32;33328;-81
2023/12/25 07:43:07;;;;;;;0.65;0.20;;;;;;;12.94;60.15;99278.81;4459382;32;33310;-81
2023/12/25 07:45:34;;;;;;;0.75;0.62;;;;;;;12.77;60.46;99293.09;4460546;32;32152;-81
2023/12/25 07:48:02;;;;;;;0.25;0.25;;;;;;;12.60;61.41;99302.06;4448005;32;32695;-81
2023/12/25 07:50:31;;;;;;;0.57;0.45;;;;;;;12.62;61.62;99297.50;4450918;32;33738;-81
2023/12/25 07:52:59;;;;;;;0.88;0.88;;;;;;;12.67;60.99;99291.94;4461764;32;33295;-80
2023/12/25 07:55:29;;;;;;;0.17;0.17;;;;;;;12.62;61.09;99288.72;4459860;32;32752;-80
2023/12/25 07:58:01;;;;;;;0.55;0.55;;;;;;;12.45;62.05;99298.53;4459627;32;33786;-80
2023/12/25 08:00:29;;;;;;;0.43;0.40;;;;;;;12.45;62.12;99298.53;4458908;32;33208;-80
2023/12/25 08:02:57;;;;;;;0.57;0.57;;;;;;;12.73;61.17;99304.84;4445429;32;32549;-80
2023/12/25 08:05:25;;;;;;;1.87;1.30;;;;;;;12.60;61.44;99314.47;4462213;31;32633;-80
2023/12/25 08:07:53;;;;;;;0.37;0.37;;;;;;;12.62;61.67;99324.00;4459289;32;34387;-79
2023/12/25 08:10:22;;;;;;;7.32;1.33;;;;;;;12.44;62.26;99323.31;4433149;32;32724;-80
2023/12/25 08:12:50;;;;;;;0.60;0.57;;;;;;;12.60;61.72;99322.41;4451858;32;33194;-80
2023/12/25 08:15:17;;;;;;;3.70;1.67;;;;;;;12.29;63.44;99322.41;4440697;32;32497;-80
2023/12/25 08:17:45;;;;;;;0.32;0.32;;;;;;;12.18;63.92;99326.62;4451789;32;34486;-79
2023/12/25 08:20:17;;;;;;;1.37;0.37;;;;;;;11.86;65.32;99337.25;4453110;32;33632;-79
2023/12/25 08:22:44;;;;;;;0.25;0.25;;;;;;;11.81;66.09;99344.56;4450942;32;31337;-80
2023/12/25 08:25:12;;;;;;;1.87;1.10;;;;;;;12.03;64.35;99344.25;4465246;32;33207;-80
2023/12/25 08:27:40;;;;;;;0.93;0.73;;;;;;;11.82;65.77;99362.19;4452325;32;31160;-80
2023/12/25 08:30:09;;;;;;;1.40;1.37;;;;;;;11.94;65.54;99357.97;4444758;32;33517;-79
2023/12/25 08:32:38;;;;;;;7.50;1.42;;;;;;;11.89;65.82;99358.25;4439959;32;31850;-80
2023/12/25 08:35:05;;;;;;;0.82;0.82;;;;;;;11.93;65.49;99359.78;4433236;32;31821;-79
2023/12/25 08:37:33;;;;;;;1.15;1.05;;;;;;;12.16;64.73;99345.25;4452906;32;32540;-80
2023/12/25 08:40:03;;;;;;;0.55;0.50;;;;;;;12.10;65.28;99347.38;4447762;32;34050;-80
2023/12/25 08:42:31;;;;;;;0.60;0.55;;;;;;;12.17;65.04;99351.41;4434606;32;32289;-80
2023/12/25 08:44:59;;;;;;;1.00;0.37;;;;;;;12.19;64.77;99352.16;4463470;32;33509;-79
2023/12/25 08:47:27;;;;;;;4.72;1.42;;;;;;;11.91;65.85;99366.94;4435693;32;32555;-80
2023/12/25 08:49:55;;;;;;;1.67;1.33;;;;;;;11.90;66.12;99375.81;4437054;32;33470;-80
2023/12/25 08:52:24;;;;;;;0.98;0.73;;;;;;;11.67;67.32;99381.50;4463034;32;33315;-80
2023/12/25 08:54:52;;;;;;;1.75;1.62;;;;;;;11.99;66.34;99385.03;4438047;32;32757;-80
2023/12/25 08:57:20;;;;;;;9.82;1.37;;;;;;;12.04;66.40;99382.97;4434578;32;34246;-80
2023/12/25 08:59:50;;;;;;;4.37;2.00;;;;;;;11.95;65.94;99394.94;4440292;32;31955;-79
2023/12/25 09:02:19;;;;;;;1.45;1.20;;;;;;;12.18;65.88;99391.00;4461316;32;32991;-80
2023/12/25 09:04:50;;;;;;;1.27;0.95;;;;;;;12.37;65.14;99397.88;4448714;32;32673;-80
2023/12/25 09:07:18;;;;;;;0.73;0.57;;;;;;;12.79;63.86;99387.44;4459324;32;34445;-80
2023/12/25 09:09:47;;;;;;;0.30;0.22;;;;;;;12.23;64.92;99377.50;4446879;32;33662;-80
2023/12/25 09:12:14;;;;;;;0.85;0.77;;;;;;;12.34;65.51;99374.22;4448428;32;32526;-80
2023/12/25 09:14:44;;;;;;;0.65;0.35;;;;;;;12.46;64.77;99365.59;4444747;32;33762;-80
2023/12/25 09:17:12;;;;;;;0.30;0.10;;;;;;;12.73;63.93;99341.94;4438093;32;33461;-80
2023/12/25 09:19:40;;;;;;;0.60;0.60;;;;;;;12.79;64.23;99344.19;4447290;32;33575;-80
2023/12/25 09:22:08;;;;;;;1.50;0.77;;;;;;;13.22;62.69;99346.91;4464544;32;32329;-79
2023/12/25 09:24:38;;;;;;;0.98;0.98;;;;;;;13.18;62.58;99356.81;4447669;32;33312;-79
2023/12/25 09:27:06;;;;;;;3.12;0.52;;;;;;;12.82;63.95;99351.97;4448021;32;34759;-79
2023/12/25 09:29:35;;;;;;;1.20;1.12;;;;;;;12.77;64.55;99367.25;4435436;32;33594;-80
2023/12/25 09:32:03;;;;;;;0.75;0.70;;;;;;;12.73;64.67;99376.37;4462137;32;32990;-80
2023/12/25 09:34:31;;;;;;;0.20;0.20;;;;;;;12.52;65.16;99379.31;4463197;31;34715;-81
2023/12/25 09:37:19;;;;;;;1.12;1.12;;;;;;;12.57;65.46;99393.13;4459199;32;33219;-80
2023/12/25 09:39:47;;;;;;;1.00;1.00;;;;;;;12.59;65.28;99400.16;4463739;32;33502;-80
2023/12/25 09:42:14;;;;;;;1.45;0.80;;;;;;;12.87;64.82;99387.00;4460009;32;31123;-80
2023/12/25 09:44:44;;;;;;;5.43;1.42;;;;;;;13.26;63.10;99364.34;4451638;32;32415;-81
2023/12/25 09:47:12;;;;;;;0.73;0.73;;;;;;;12.80;65.19;99353.84;4437876;32;32513;-81
2023/12/25 09:49:40;;;;;;;5.78;1.00;;;;;;;12.85;65.34;99365.03;4446705;32;33138;-81
2023/12/25 09:52:09;;;;;;;2.45;2.15;;;;;;;13.03;64.48;99353.31;4469035;31;32157;-81
2023/12/25 09:54:38;;;;;;;2.30;2.15;;;;;;;13.31;63.40;99363.13;4435601;32;33511;-81
2023/12/25 09:57:06;;;;;;;1.17;0.88;;;;;;;13.01;63.96;99373.78;4458695;32;34566;-81
2023/12/25 09:59:34;;;;;;;0.70;0.70;;;;;;;13.23;63.30;99360.06;4434745;32;32615;-80
2023/12/25 10:02:05;;;;;;;0.40;0.40;;;;;;;13.43;60.91;99345.56;4470867;31;32793;-81
2023/12/25 10:04:35;;;;;;;0.20;0.20;;;;;;;13.64;59.36;99337.22;4448681;32;32418;-81
2023/12/25 10:07:06;;;;;;;0.77;0.77;;;;;;;13.61;59.41;99342.72;4451086;32;31428;-81
2023/12/25 10:09:34;;;;;;;0.17;0.17;;;;;;;13.49;60.18;99361.13;4448437;32;33328;-81
2023/12/25 10:12:02;;;;;;;0.80;0.65;;;;;;;13.63;58.75;99346.16;4449762;32;32094;-81
2023/12/25 10:14:30;;;;;;;0.40;0.30;;;;;;;14.00;58.39;99337.50;4446200;32;33580;-81
2023/12/25 10:16:58;;;;;;;0.35;0.35;;;;;;;14.14;58.02;99325.97;4463511;32;34862;-81
2023/12/25 10:19:26;;;;;;;0.60;0.55;;;;;;;13.88;58.56;99311.75;4450617;32;32012;-81
2023/12/25 10:21:56;;;;;;;0.20;0.20;;;;;;;13.83;59.38;99316.53;4462323;32;33471;-81
2023/12/25 10:24:27;;;;;;;1.75;1.20;;;;;;;13.64;61.03;99326.62;4472863;32;33849;-81
2023/12/25 10:27:02;;;;;;;1.85;1.45;;;;;;;13.65;60.30;99323.00;4433134;32;33113;-80
2023/12/25 10:29:35;;;;;;;0.93;0.90;;;;;;;14.13;58.66;99331.41;4450418;32;33161;-81
2023/12/25 10:32:18;;;;;;;0.10;0.10;;;;;;;14.01;58.57;99335.72;4444762;32;33180;-83
2023/12/25 10:34:49;;;;;;;1.92;1.45;;;;;;;13.92;59.66;99347.78;4444724;32;33110;-81
2023/12/25 10:37:16;;;;;;;0.85;0.73;;;;;;;13.65;59.88;99354.84;4442709;32;34811;-84
2023/12/25 10:39:44;;;;;;;0.10;0.10;;;;;;;14.07;58.52;99349.44;4445043;32;33269;-82
2023/12/25 10:42:12;;;;;;;0.30;0.30;;;;;;;14.03;58.00;99366.50;4458405;32;32595;-82
2023/12/25 10:44:44;;;;;;;2.15;1.00;;;;;;;14.06;57.14;99376.09;4449797;32;32971;-82
2023/12/25 10:47:13;;;;;;;0.65;0.65;;;;;;;14.28;56.68;99348.97;4432807;32;33460;-81
2023/12/25 10:49:41;;;;;;;1.85;0.85;;;;;;;14.39;56.58;99337.66;4456589;32;34217;-80
2023/12/25 10:52:10;;;;;;;1.10;0.73;;;;;;;14.08;57.93;99355.59;4448263;32;31750;-82
2023/12/25 10:54:38;;;;;;;1.50;1.10;;;;;;;14.19;57.05;99336.28;4450440;32;33543;-81
2023/12/25 10:57:09;;;;;;;2.62;0.73;;;;;;;14.21;56.74;99321.97;4440435;32;33851;-80
2023/12/25 10:59:38;;;;;;;3.00;2.17;;;;;;;14.29;56.13;99318.78;4459866;32;33303;-81
2023/12/25 11:02:13;;;;;;;0.62;0.62;;;;;;;13.78;57.69;99315.97;4447856;32;32671;-80
2023/12/25 11:04:43;;;;;;;2.08;1.27;;;;;;;14.20;56.53;99314.13;4448855;32;33047;-81
2023/12/25 11:07:13;;;;;;;5.43;1.62;;;;;;;14.11;56.54;99323.53;4449952;32;34579;-81
2023/12/25 11:09:42;;;;;;;1.00;0.98;;;;;;;14.07;56.88;99333.50;4443175;32;32969;-81
2023/12/25 11:12:10;;;;;;;0.57;0.47;;;;;;;13.58;58.36;99339.31;4460436;32;33816;-81
2023/12/25 11:14:38;;;;;;;1.42;1.33;;;;;;;14.08;56.94;99337.84;4448738;32;34639;-81
2023/12/25 11:17:07;;;;;;;1.23;0.75;;;;;;;14.18;56.58;99329.28;4461062;32;32739;-80
2023/12/25 11:19:35;;;;;;;9.80;1.17;;;;;;;14.28;56.49;99327.72;4461539;32;34029;-82
2023/12/25 11:22:26;;;;;;;0.40;0.40;;;;;;;14.19;56.88;99345.09;4449859;32;31348;-80
2023/12/25 11:24:58;;;;;;;0.20;0.20;;;;;;;14.40;55.99;99352.63;4446075;32;33619;-80
2023/12/25 11:27:26;;;;;;;0.85;0.20;;;;;;;13.98;58.33;99354.47;4445041;32;33366;-80
2023/12/25 11:30:08;;;;;;;0.32;0.32;;;;;;;14.37;56.59;99332.41;4472168;32;33311;-81
2023/12/25 11:32:37;;;;;;;12.00;1.75;;;;;;;14.13;57.78;99313.66;4448400;32;33753;-81
2023/12/25 11:35:07;;;;;;;3.60;0.98;;;;;;;14.06;58.26;99334.47;4453647;32;33584;-81
2023/12/25 11:37:35;;;;;;;7.18;1.90;;;;;;;14.43;57.29;99345.31;4452179;32;33940;-80
2023/12/25 11:40:06;;;;;;;3.00;1.40;;;;;;;14.70;56.11;99333.78;4448881;32;33127;-81
2023/12/25 11:42:38;;;;;;;7.60;2.47;;;;;;;14.30;57.76;99336.44;4449387;32;33052;-81